createdAt,value
2018-12-11T00:01:34.904Z,4.60
2018-12-11T00:04:02.411Z,4.60
2018-12-11T00:06:29.991Z,4.70
2018-12-11T00:08:57.496Z,4.70
2018-12-11T00:11:24.994Z,4.60
2018-12-11T00:13:52.529Z,4.30
2018-12-11T00:16:20.047Z,4.10
2018-12-11T00:18:47.550Z,4.20
2018-12-11T00:21:15.114Z,4.30
2018-12-11T00:23:42.604Z,4.40
2018-12-11T00:26:10.452Z,4.50
2018-12-11T00:28:37.948Z,4.70
2018-12-11T00:31:05.759Z,4.60
2018-12-11T00:33:33.284Z,4.60
2018-12-11T00:36:01.780Z,4.60
2018-12-11T00:38:29.963Z,4.60
2018-12-11T00:40:57.468Z,4.50
2018-12-11T00:43:24.988Z,4.60
2018-12-11T00:45:52.618Z,4.60
2018-12-11T00:48:20.114Z,4.50
2018-12-11T00:50:47.607Z,4.60
2018-12-11T00:53:15.221Z,4.50
2018-12-11T00:55:42.707Z,4.50
2018-12-11T00:58:10.488Z,4.50
2018-12-11T01:00:37.964Z,4.50
2018-12-11T01:03:05.540Z,4.30
2018-12-11T01:05:33.053Z,4.00
2018-12-11T01:08:01.486Z,4.30
2018-12-11T01:10:28.992Z,4.30
2018-12-11T01:12:56.815Z,4.50
2018-12-11T01:15:24.316Z,4.50
2018-12-11T01:17:52.046Z,4.30
2018-12-11T01:20:26.342Z,4.30
2018-12-11T01:22:53.831Z,4.30
2018-12-11T01:25:21.345Z,4.30
2018-12-11T01:27:48.853Z,4.40
2018-12-11T01:30:16.366Z,4.20
2018-12-11T01:32:43.871Z,4.20
2018-12-11T01:35:11.395Z,4.20
2018-12-11T01:37:38.891Z,4.20
2018-12-11T01:40:06.638Z,4.10
2018-12-11T01:42:42.508Z,4.20
2018-12-11T01:45:10.012Z,4.10
2018-12-11T01:47:37.510Z,4.00
2018-12-11T01:50:05.012Z,4.20
2018-12-11T01:52:32.502Z,4.40
2018-12-11T01:54:59.982Z,4.30
2018-12-11T01:57:27.472Z,4.10
2018-12-11T01:59:55.875Z,4.20
2018-12-11T02:02:23.411Z,4.30
2018-12-11T02:04:50.902Z,4.50
2018-12-11T02:07:18.526Z,4.40
2018-12-11T02:09:47.418Z,4.40
2018-12-11T02:12:14.919Z,4.20
2018-12-11T02:14:42.425Z,4.30
2018-12-11T02:17:10.266Z,4.40
2018-12-11T02:19:37.983Z,4.20
2018-12-11T02:22:05.491Z,4.30
2018-12-11T02:24:32.974Z,4.20
2018-12-11T02:27:00.466Z,4.10
2018-12-11T02:29:27.943Z,4.30
2018-12-11T02:31:55.473Z,4.20
2018-12-11T02:34:22.987Z,4.30
2018-12-11T02:36:50.576Z,4.20
2018-12-11T02:39:18.112Z,4.20
2018-12-11T02:41:46.392Z,4.30
2018-12-11T02:44:13.914Z,4.30
2018-12-11T02:46:41.442Z,4.20
2018-12-11T02:49:08.981Z,4.20
2018-12-11T02:51:36.491Z,4.20
2018-12-11T02:54:04.032Z,4.20
2018-12-11T02:56:31.541Z,4.20
2018-12-11T02:58:59.874Z,4.20
2018-12-11T03:01:27.387Z,4.20
2018-12-11T03:03:54.857Z,4.30
2018-12-11T03:06:22.381Z,4.20
2018-12-11T03:08:49.891Z,4.10
2018-12-11T03:11:17.545Z,4.10
2018-12-11T03:13:45.350Z,4.10
2018-12-11T03:16:12.854Z,4.30
2018-12-11T03:18:40.355Z,4.30
2018-12-11T03:21:09.204Z,4.40
2018-12-11T03:23:36.745Z,4.30
2018-12-11T03:26:04.246Z,4.30
2018-12-11T03:28:31.972Z,4.20
2018-12-11T03:30:59.514Z,4.40
2018-12-11T03:33:27.129Z,4.30
2018-12-11T03:35:54.623Z,4.00
2018-12-11T03:38:22.099Z,4.10
2018-12-11T03:40:49.657Z,4.20
2018-12-11T03:43:17.195Z,4.20
2018-12-11T03:45:44.716Z,4.10
2018-12-11T03:48:12.416Z,4.00
2018-12-11T03:50:40.645Z,4.10
2018-12-11T03:53:08.336Z,3.90
2018-12-11T03:55:35.983Z,4.00
2018-12-11T03:58:03.490Z,4.00
2018-12-11T04:00:31.047Z,4.10
2018-12-11T04:02:58.586Z,4.20
2018-12-11T04:05:26.167Z,4.20
2018-12-11T04:07:53.787Z,4.10
2018-12-11T04:10:21.358Z,4.20
2018-12-11T04:12:48.916Z,4.10
2018-12-11T04:15:17.494Z,4.30
2018-12-11T04:17:45.190Z,4.30
2018-12-11T04:20:13.102Z,4.50
2018-12-11T04:22:40.736Z,4.30
2018-12-11T04:25:08.308Z,4.40
2018-12-11T04:27:35.878Z,4.50
2018-12-11T04:30:05.191Z,4.30
2018-12-11T04:32:32.749Z,4.20
2018-12-11T04:35:00.383Z,4.40
2018-12-11T04:37:28.245Z,4.60
2018-12-11T04:39:55.766Z,4.50
2018-12-11T04:42:23.288Z,4.60
2018-12-11T04:44:50.818Z,4.80
2018-12-11T04:47:18.372Z,4.60
2018-12-11T04:49:46.540Z,4.60
2018-12-11T04:52:14.018Z,4.70
2018-12-11T04:54:41.527Z,4.80
2018-12-11T04:57:09.020Z,4.80
2018-12-11T04:59:36.540Z,4.50
2018-12-11T05:02:04.046Z,4.40
2018-12-11T05:04:31.535Z,4.40
2018-12-11T05:06:59.061Z,4.30
2018-12-11T05:09:26.550Z,4.40
2018-12-11T05:11:54.048Z,4.40
2018-12-11T05:14:21.540Z,4.20
2018-12-11T05:16:49.047Z,4.10
2018-12-11T05:19:17.459Z,4.10
2018-12-11T05:21:44.966Z,4.40
2018-12-11T05:24:12.474Z,4.40
2018-12-11T05:26:39.976Z,4.30
2018-12-11T05:29:07.597Z,4.50
2018-12-11T05:31:35.093Z,4.70
2018-12-11T05:34:02.599Z,4.70
2018-12-11T05:36:30.088Z,4.80
2018-12-11T05:38:57.654Z,4.80
2018-12-11T05:41:25.139Z,4.60
2018-12-11T05:43:52.647Z,4.70
2018-12-11T05:46:20.143Z,4.60
2018-12-11T05:48:47.668Z,4.60
2018-12-11T05:51:15.180Z,4.70
2018-12-11T05:53:43.643Z,4.70
2018-12-11T05:56:11.131Z,4.70
2018-12-11T05:58:38.676Z,4.70
2018-12-11T06:01:06.897Z,4.90
2018-12-11T06:03:34.386Z,4.90
2018-12-11T06:06:01.899Z,4.90
2018-12-11T06:08:29.399Z,5.00
2018-12-11T06:10:56.886Z,4.80
2018-12-11T06:13:24.364Z,4.50
2018-12-11T06:15:51.877Z,4.50
2018-12-11T06:18:19.387Z,4.70
2018-12-11T06:20:46.871Z,4.90
2018-12-11T06:23:14.385Z,4.90
2018-12-11T06:25:41.884Z,5.00
2018-12-11T06:28:09.451Z,4.90
2018-12-11T06:30:36.953Z,4.80
2018-12-11T06:33:04.465Z,4.70
2018-12-11T06:35:32.111Z,4.50
2018-12-11T06:37:59.603Z,4.50
2018-12-11T06:40:27.095Z,4.50
2018-12-11T06:42:54.590Z,4.60
2018-12-11T06:45:22.101Z,4.80
2018-12-11T06:47:49.593Z,4.80
2018-12-11T06:50:19.208Z,4.80
2018-12-11T06:52:46.717Z,4.80
2018-12-11T06:55:14.215Z,4.70
2018-12-11T06:57:41.736Z,4.60
2018-12-11T07:00:09.426Z,4.50
2018-12-11T07:02:36.931Z,4.70
2018-12-11T07:05:05.011Z,4.60
2018-12-11T07:07:32.522Z,4.30
2018-12-11T07:10:00.023Z,4.20
2018-12-11T07:12:27.514Z,4.20
2018-12-11T07:14:55.062Z,3.90
2018-12-11T07:17:22.575Z,3.80
2018-12-11T07:19:50.142Z,4.10
2018-12-11T07:22:17.654Z,4.30
2018-12-11T07:24:45.143Z,4.30
2018-12-11T07:27:12.750Z,4.30
2018-12-11T07:29:40.236Z,4.30
2018-12-11T07:32:07.742Z,4.40
2018-12-11T07:34:35.297Z,4.40
2018-12-11T07:37:02.815Z,4.00
2018-12-11T07:39:30.311Z,4.10
2018-12-11T07:41:57.834Z,4.20
2018-12-11T07:44:25.681Z,4.00
2018-12-11T07:46:53.171Z,4.10
2018-12-11T07:49:20.667Z,4.40
2018-12-11T07:51:48.178Z,4.20
2018-12-11T07:54:15.697Z,4.20
2018-12-11T07:56:43.556Z,4.10
2018-12-11T07:59:11.064Z,4.30
2018-12-11T08:01:38.572Z,4.50
2018-12-11T08:04:06.137Z,4.50
2018-12-11T08:06:33.648Z,4.30
2018-12-11T08:09:01.483Z,4.40
2018-12-11T08:11:28.975Z,4.30
2018-12-11T08:13:56.499Z,4.30
2018-12-11T08:16:26.624Z,4.40
2018-12-11T08:18:54.498Z,4.50
2018-12-11T08:21:22.112Z,4.60
2018-12-11T08:23:49.589Z,5.00
2018-12-11T08:26:17.756Z,5.10
2018-12-11T08:28:45.315Z,5.00
2018-12-11T08:31:12.801Z,5.10
2018-12-11T08:33:40.350Z,4.80
2018-12-11T08:36:08.164Z,4.80
2018-12-11T08:38:35.666Z,4.70
2018-12-11T08:41:03.142Z,4.60
2018-12-11T08:43:30.642Z,4.70
2018-12-11T08:45:58.162Z,4.80
2018-12-11T08:48:25.675Z,5.10
2018-12-11T08:50:53.191Z,5.30
2018-12-11T08:53:20.703Z,5.50
2018-12-11T08:55:48.219Z,5.70
2018-12-11T08:58:15.732Z,5.70
2018-12-11T09:00:43.230Z,5.70
2018-12-11T09:03:10.835Z,5.80
2018-12-11T09:05:38.331Z,6.10
2018-12-11T09:08:05.849Z,6.50
2018-12-11T09:10:33.659Z,6.70
2018-12-11T09:13:01.202Z,6.70
2018-12-11T09:15:28.681Z,6.90
2018-12-11T09:17:56.194Z,6.90
2018-12-11T09:20:23.675Z,7.10
2018-12-11T09:22:51.175Z,7.30
2018-12-11T09:25:18.658Z,7.60
2018-12-11T09:27:46.170Z,8.10
2018-12-11T09:30:13.654Z,8.20
2018-12-11T09:32:41.133Z,8.20
2018-12-11T09:35:08.636Z,8.00
2018-12-11T09:37:36.135Z,7.60
2018-12-11T09:40:04.275Z,7.60
2018-12-11T09:42:31.746Z,7.30
2018-12-11T09:44:59.267Z,6.90
2018-12-11T09:47:26.791Z,6.90
2018-12-11T09:49:54.294Z,7.30
2018-12-11T09:52:21.800Z,7.40
2018-12-11T09:54:49.281Z,7.80
2018-12-11T09:57:16.791Z,7.70
2018-12-11T09:59:44.287Z,7.70
2018-12-11T10:02:11.774Z,8.10
2018-12-11T10:04:39.276Z,8.20
2018-12-11T10:07:19.398Z,8.70
2018-12-11T10:09:46.897Z,8.90
2018-12-11T10:12:14.390Z,9.10
2018-12-11T10:14:41.898Z,9.30
2018-12-11T10:17:09.405Z,9.20
2018-12-11T10:19:36.910Z,9.20
2018-12-11T10:22:04.412Z,9.50
2018-12-11T10:24:31.928Z,9.40
2018-12-11T10:26:59.401Z,9.40
2018-12-11T10:29:26.896Z,9.50
2018-12-11T10:31:54.461Z,9.40
2018-12-11T10:34:21.991Z,9.50
2018-12-11T10:36:49.596Z,9.20
2018-12-11T10:39:17.099Z,9.20
2018-12-11T10:41:44.599Z,9.10
2018-12-11T10:44:12.083Z,8.90
2018-12-11T10:46:39.580Z,9.10
2018-12-11T10:49:07.077Z,9.10
2018-12-11T10:51:35.516Z,9.10
2018-12-11T10:54:03.011Z,9.00
2018-12-11T10:56:30.510Z,9.00
2018-12-11T10:58:58.023Z,9.20
2018-12-11T11:01:26.438Z,9.10
2018-12-11T11:03:53.926Z,9.20
2018-12-11T11:06:22.215Z,9.20
2018-12-11T11:08:49.945Z,9.20
2018-12-11T11:11:17.502Z,9.30
2018-12-11T11:13:45.044Z,9.60
2018-12-11T11:16:15.041Z,9.70
2018-12-11T11:18:42.545Z,9.90
2018-12-11T11:21:10.068Z,10.10
2018-12-11T11:23:37.554Z,9.90
2018-12-11T11:26:05.030Z,9.90
2018-12-11T11:28:32.543Z,9.80
2018-12-11T11:31:00.038Z,9.90
2018-12-11T11:33:27.529Z,9.70
2018-12-11T11:35:55.135Z,9.60
2018-12-11T11:38:22.605Z,9.40
2018-12-11T11:40:50.120Z,9.40
2018-12-11T11:43:17.658Z,9.20
2018-12-11T11:45:45.237Z,9.40
2018-12-11T11:48:12.723Z,9.40
2018-12-11T11:50:40.195Z,9.50
2018-12-11T11:53:07.686Z,9.50
2018-12-11T11:55:35.190Z,9.40
2018-12-11T11:58:02.673Z,9.40
2018-12-11T12:00:30.322Z,9.40
2018-12-11T12:02:57.799Z,9.40
2018-12-11T12:05:25.276Z,9.50
2018-12-11T12:07:52.788Z,9.70
2018-12-11T12:10:20.266Z,9.70
2018-12-11T12:12:47.762Z,9.30
2018-12-11T12:15:15.250Z,9.30
2018-12-11T12:17:42.765Z,9.40
2018-12-11T12:20:10.284Z,9.30
2018-12-11T12:22:37.783Z,9.30
2018-12-11T12:25:05.552Z,9.60
2018-12-11T12:27:33.124Z,9.80
2018-12-11T12:30:00.611Z,10.10
2018-12-11T12:32:28.109Z,10.10
2018-12-11T12:34:55.600Z,10.20
2018-12-11T12:37:23.096Z,10.40
2018-12-11T12:39:50.623Z,10.60
2018-12-11T12:42:19.038Z,10.70
2018-12-11T12:44:46.519Z,10.60
2018-12-11T12:47:14.001Z,10.90
2018-12-11T12:49:41.505Z,11.30
2018-12-11T12:52:08.991Z,11.70
2018-12-11T12:54:36.497Z,11.20
2018-12-11T12:57:04.520Z,10.80
2018-12-11T12:59:32.020Z,10.30
2018-12-11T13:01:59.519Z,10.20
2018-12-11T13:04:27.522Z,9.90
2018-12-11T13:06:55.065Z,9.60
2018-12-11T13:09:23.337Z,9.80
2018-12-11T13:11:51.085Z,9.40
2018-12-11T13:14:18.627Z,9.30
2018-12-11T13:16:46.206Z,9.30
2018-12-11T13:19:13.785Z,9.60
2018-12-11T13:21:41.301Z,9.90
2018-12-11T13:24:08.820Z,9.70
2018-12-11T13:26:36.296Z,10.10
2018-12-11T13:29:03.851Z,10.20
2018-12-11T13:31:31.347Z,10.40
2018-12-11T13:33:58.866Z,10.40
2018-12-11T13:36:31.990Z,10.80
2018-12-11T13:38:55.899Z,10.90
2018-12-11T13:41:23.404Z,10.50
2018-12-11T13:43:50.928Z,10.20
2018-12-11T13:46:18.523Z,9.70
2018-12-11T13:48:46.261Z,9.50
2018-12-11T13:51:13.800Z,9.40
2018-12-11T13:53:41.377Z,9.40
2018-12-11T13:56:08.869Z,9.50
2018-12-11T13:58:36.363Z,9.30
2018-12-11T14:01:03.932Z,9.30
2018-12-11T14:03:31.430Z,9.40
2018-12-11T14:05:58.911Z,9.50
2018-12-11T14:08:26.426Z,9.40
2018-12-11T14:10:53.907Z,9.40
2018-12-11T14:13:21.400Z,9.30
2018-12-11T14:15:48.882Z,9.00
2018-12-11T14:18:16.384Z,8.60
2018-12-11T14:20:43.870Z,8.50
2018-12-11T14:23:11.371Z,8.70
2018-12-11T14:25:38.867Z,8.60
2018-12-11T14:28:06.349Z,8.50
2018-12-11T14:30:33.969Z,8.60
2018-12-11T14:33:01.490Z,8.70
2018-12-11T14:35:28.975Z,8.70
2018-12-11T14:37:56.486Z,8.50
2018-12-11T14:40:24.067Z,8.20
2018-12-11T14:42:51.568Z,8.30
2018-12-11T14:45:19.131Z,8.50
2018-12-11T14:47:46.723Z,8.60
2018-12-11T14:50:14.280Z,8.60
2018-12-11T14:52:42.023Z,8.50
2018-12-11T14:55:10.767Z,8.50
2018-12-11T14:57:38.251Z,8.60
2018-12-11T15:00:08.183Z,8.10
2018-12-11T15:02:35.772Z,8.20
2018-12-11T15:05:03.798Z,8.40
2018-12-11T15:07:31.374Z,8.50
2018-12-11T15:09:58.864Z,8.40
2018-12-11T15:12:26.370Z,8.50
2018-12-11T15:14:53.879Z,8.40
2018-12-11T15:17:21.831Z,8.30
2018-12-11T15:19:49.371Z,8.30
2018-12-11T15:22:16.884Z,8.30
2018-12-11T15:24:44.383Z,8.20
2018-12-11T15:27:11.935Z,8.30
2018-12-11T15:29:39.447Z,8.30
2018-12-11T15:32:06.922Z,8.20
2018-12-11T15:34:34.406Z,8.30
2018-12-11T15:37:01.918Z,8.20
2018-12-11T15:39:35.653Z,8.00
2018-12-11T15:41:59.052Z,8.00
2018-12-11T15:44:26.539Z,8.10
2018-12-11T15:46:54.050Z,8.00
2018-12-11T15:49:21.798Z,8.00
2018-12-11T15:51:49.478Z,8.00
2018-12-11T15:54:17.081Z,8.00
2018-12-11T15:56:44.757Z,7.90
2018-12-11T15:59:12.267Z,8.00
2018-12-11T16:01:39.762Z,7.80
2018-12-11T16:04:07.258Z,8.00
2018-12-11T16:06:34.781Z,7.90
2018-12-11T16:09:04.247Z,8.00
2018-12-11T16:11:31.765Z,7.80
2018-12-11T16:13:59.235Z,7.80
2018-12-11T16:16:27.939Z,7.80
2018-12-11T16:18:55.624Z,7.60
2018-12-11T16:21:23.107Z,7.60
2018-12-11T16:23:50.587Z,7.60
2018-12-11T16:26:18.081Z,7.50
2018-12-11T16:28:45.559Z,7.70
2018-12-11T16:31:13.073Z,7.80
2018-12-11T16:33:40.602Z,7.70
2018-12-11T16:36:08.117Z,7.80
2018-12-11T16:38:35.636Z,7.80
2018-12-11T16:41:03.980Z,7.80
2018-12-11T16:43:31.462Z,8.00
2018-12-11T16:45:58.951Z,8.10
2018-12-11T16:48:26.444Z,8.00
2018-12-11T16:50:53.937Z,7.90
2018-12-11T16:53:21.439Z,8.00
2018-12-11T16:55:49.011Z,7.90
2018-12-11T16:58:16.490Z,7.90
2018-12-11T17:00:43.995Z,7.90
2018-12-11T17:03:11.526Z,7.90
2018-12-11T17:05:39.107Z,7.90
2018-12-11T17:08:06.608Z,7.80
2018-12-11T17:10:34.108Z,7.80
2018-12-11T17:13:01.667Z,7.90
2018-12-11T17:15:29.439Z,7.80
2018-12-11T17:17:57.025Z,7.90
2018-12-11T17:20:24.526Z,7.60
2018-12-11T17:22:52.029Z,7.70
2018-12-11T17:25:19.593Z,7.80
2018-12-11T17:27:47.168Z,7.90
2018-12-11T17:30:14.762Z,7.90
2018-12-11T17:32:42.256Z,7.70
2018-12-11T17:35:09.765Z,7.70
2018-12-11T17:37:37.268Z,7.60
2018-12-11T17:40:05.613Z,7.70
2018-12-11T17:42:33.109Z,7.70
2018-12-11T17:45:00.603Z,7.70
2018-12-11T17:47:28.092Z,7.70
2018-12-11T17:49:55.575Z,7.70
2018-12-11T17:52:23.907Z,7.80
2018-12-11T17:54:51.389Z,7.80
2018-12-11T17:57:18.875Z,7.90
2018-12-11T17:59:46.364Z,7.80
2018-12-11T18:02:15.827Z,7.80
2018-12-11T18:04:43.310Z,7.80
2018-12-11T18:07:10.807Z,7.90
2018-12-11T18:09:38.302Z,8.00
2018-12-11T18:12:05.808Z,7.90
2018-12-11T18:14:33.319Z,7.90
2018-12-11T18:17:00.822Z,7.90
2018-12-11T18:19:28.314Z,7.90
2018-12-11T18:21:55.793Z,7.90
2018-12-11T18:24:23.277Z,7.80
2018-12-11T18:26:50.872Z,7.90
2018-12-11T18:29:18.355Z,7.80
2018-12-11T18:31:45.849Z,7.80
2018-12-11T18:34:13.367Z,7.90
2018-12-11T18:36:41.187Z,8.00
2018-12-11T18:39:09.039Z,8.00
2018-12-11T18:41:36.542Z,7.90
2018-12-11T18:44:04.089Z,7.80
2018-12-11T18:46:31.666Z,7.90
2018-12-11T18:48:59.222Z,7.70
2018-12-11T18:51:26.695Z,7.70
2018-12-11T18:53:54.186Z,7.70
2018-12-11T18:56:21.654Z,7.80
2018-12-11T18:58:49.223Z,7.80
2018-12-11T19:01:16.783Z,8.00
2018-12-11T19:03:49.301Z,7.90
2018-12-11T19:06:13.845Z,7.80
2018-12-11T19:08:41.327Z,7.80
2018-12-11T19:11:08.812Z,7.90
2018-12-11T19:13:36.352Z,7.90
2018-12-11T19:16:04.017Z,7.90
2018-12-11T19:18:31.747Z,7.60
2018-12-11T19:20:59.435Z,7.30
2018-12-11T19:23:27.943Z,7.20
2018-12-11T19:25:55.409Z,6.90
2018-12-11T19:28:22.900Z,6.90
2018-12-11T19:30:50.404Z,7.20
2018-12-11T19:33:17.893Z,7.30
2018-12-11T19:35:45.375Z,7.40
2018-12-11T19:38:12.867Z,7.20
2018-12-11T19:40:41.177Z,7.20
2018-12-11T19:43:09.920Z,7.30
2018-12-11T19:45:37.435Z,7.20
2018-12-11T19:48:04.922Z,7.00
2018-12-11T19:50:32.416Z,6.90
2018-12-11T19:52:59.908Z,6.90
2018-12-11T19:55:27.392Z,6.90
2018-12-11T19:57:59.602Z,7.00
2018-12-11T20:00:24.486Z,6.90
2018-12-11T20:02:52.020Z,6.90
2018-12-11T20:05:19.515Z,6.90
2018-12-11T20:07:47.757Z,6.70
2018-12-11T20:10:15.967Z,6.50
2018-12-11T20:12:44.003Z,6.70
2018-12-11T20:15:11.577Z,6.60
2018-12-11T20:17:39.057Z,6.80
2018-12-11T20:20:07.510Z,6.40
2018-12-11T20:22:35.008Z,6.10
2018-12-11T20:25:02.491Z,6.00
2018-12-11T20:27:29.990Z,6.10
2018-12-11T20:29:57.496Z,6.40
2018-12-11T20:32:24.978Z,6.50
2018-12-11T20:34:52.469Z,6.40
2018-12-11T20:37:20.055Z,6.30
2018-12-11T20:39:47.624Z,6.50
2018-12-11T20:42:15.121Z,6.40
2018-12-11T20:44:42.628Z,6.40
2018-12-11T20:47:10.125Z,6.60
2018-12-11T20:49:37.601Z,6.50
2018-12-11T20:52:05.133Z,6.60
2018-12-11T20:54:33.717Z,6.50
2018-12-11T20:57:01.988Z,6.60
2018-12-11T20:59:29.490Z,6.60
2018-12-11T21:01:56.976Z,6.50
2018-12-11T21:04:24.478Z,6.70
2018-12-11T21:06:51.960Z,6.80
2018-12-11T21:09:19.446Z,6.70
2018-12-11T21:11:46.957Z,6.80
2018-12-11T21:14:14.439Z,6.80
2018-12-11T21:16:41.937Z,6.90
2018-12-11T21:19:10.586Z,6.70
2018-12-11T21:21:38.375Z,6.60
2018-12-11T21:24:06.251Z,6.70
2018-12-11T21:26:33.750Z,6.70
2018-12-11T21:29:01.256Z,6.60
2018-12-11T21:31:30.216Z,6.80
2018-12-11T21:33:57.715Z,6.60
2018-12-11T21:36:25.388Z,6.60
2018-12-11T21:38:52.878Z,6.60
2018-12-11T21:41:20.367Z,6.60
2018-12-11T21:43:47.853Z,6.60
2018-12-11T21:46:15.367Z,6.60
2018-12-11T21:48:42.850Z,6.50
2018-12-11T21:51:10.376Z,6.50
2018-12-11T21:53:39.022Z,6.60
2018-12-11T21:56:07.572Z,6.60
2018-12-11T21:58:35.043Z,6.50
2018-12-11T22:01:02.535Z,6.50
2018-12-11T22:03:30.218Z,6.20
2018-12-11T22:05:57.788Z,6.40
2018-12-11T22:08:25.294Z,6.30
2018-12-11T22:10:52.777Z,6.30
2018-12-11T22:13:20.288Z,6.30
2018-12-11T22:15:47.775Z,6.20
2018-12-11T22:18:15.275Z,6.20
2018-12-11T22:20:42.780Z,6.40
2018-12-11T22:23:10.350Z,6.30
2018-12-11T22:25:37.848Z,6.30
2018-12-11T22:28:05.463Z,6.40
2018-12-11T22:30:32.935Z,6.40
2018-12-11T22:33:00.433Z,6.30
2018-12-11T22:35:27.935Z,6.30
2018-12-11T22:37:55.419Z,6.20
2018-12-11T22:40:22.893Z,6.10
2018-12-11T22:42:50.388Z,6.10
2018-12-11T22:45:17.960Z,6.10
2018-12-11T22:47:45.481Z,6.20
2018-12-11T22:50:12.958Z,6.00
2018-12-11T22:52:40.457Z,6.10
2018-12-11T22:55:07.993Z,6.00
2018-12-11T22:57:35.563Z,5.90
2018-12-11T23:00:06.115Z,5.80
2018-12-11T23:02:33.956Z,5.70
2018-12-11T23:05:01.553Z,5.70
2018-12-11T23:07:29.215Z,5.70
2018-12-11T23:09:56.947Z,5.70
2018-12-11T23:12:24.470Z,5.60
2018-12-11T23:14:51.961Z,5.50
2018-12-11T23:17:19.448Z,5.60
2018-12-11T23:19:47.004Z,5.60
2018-12-11T23:22:14.561Z,5.40
2018-12-11T23:24:42.254Z,5.50
2018-12-11T23:27:09.747Z,5.20
2018-12-11T23:29:37.245Z,5.20
2018-12-11T23:32:04.725Z,5.40
2018-12-11T23:34:32.233Z,5.20
2018-12-11T23:36:59.739Z,5.30
2018-12-11T23:39:27.239Z,5.20
2018-12-11T23:41:55.275Z,5.00
2018-12-11T23:44:22.771Z,5.00
2018-12-11T23:46:50.271Z,4.90
2018-12-11T23:49:18.114Z,5.00
2018-12-11T23:51:45.676Z,5.10
2018-12-11T23:54:13.169Z,5.00
2018-12-11T23:56:40.690Z,5.00
2018-12-11T23:59:08.191Z,5.00
